sensor_id;sensor_type;location;lat;lon;timestamp;P1;durP1;ratioP1;P2;durP2;ratioP2
75993;SDS011;64680;53.800;9.988;2022-11-15T00:01:33;38.17;;;19.50;;
75993;SDS011;64680;53.800;9.988;2022-11-15T00:03:59;45.78;;;22.98;;
75993;SDS011;64680;53.800;9.988;2022-11-15T00:06:25;41.53;;;20.10;;
75993;SDS011;64680;53.800;9.988;2022-11-15T00:08:50;29.55;;;14.77;;
75993;SDS011;64680;53.800;9.988;2022-11-15T00:11:16;34.20;;;17.15;;
75993;SDS011;64680;53.800;9.988;2022-11-15T00:13:41;31.73;;;16.05;;
75993;SDS011;64680;53.800;9.988;2022-11-15T00:16:08;35.70;;;18.38;;
75993;SDS011;64680;53.800;9.988;2022-11-15T00:18:34;37.67;;;18.40;;
75993;SDS011;64680;53.800;9.988;2022-11-15T00:21:07;33.67;;;17.10;;
75993;SDS011;64680;53.800;9.988;2022-11-15T00:23:34;34.13;;;17.65;;
75993;SDS011;64680;53.800;9.988;2022-11-15T00:26:00;41.47;;;19.40;;
75993;SDS011;64680;53.800;9.988;2022-11-15T00:28:25;35.83;;;17.70;;
75993;SDS011;64680;53.800;9.988;2022-11-15T00:30:51;30.50;;;14.68;;
75993;SDS011;64680;53.800;9.988;2022-11-15T00:33:17;32.33;;;14.85;;
75993;SDS011;64680;53.800;9.988;2022-11-15T00:35:43;34.25;;;17.52;;
75993;SDS011;64680;53.800;9.988;2022-11-15T00:38:08;31.55;;;15.75;;
75993;SDS011;64680;53.800;9.988;2022-11-15T00:40:34;38.55;;;17.00;;
75993;SDS011;64680;53.800;9.988;2022-11-15T00:43:00;30.38;;;15.38;;
75993;SDS011;64680;53.800;9.988;2022-11-15T00:45:25;27.92;;;13.50;;
75993;SDS011;64680;53.800;9.988;2022-11-15T00:47:51;31.60;;;15.00;;
75993;SDS011;64680;53.800;9.988;2022-11-15T00:50:17;40.92;;;19.60;;
75993;SDS011;64680;53.800;9.988;2022-11-15T00:52:43;35.60;;;17.80;;
75993;SDS011;64680;53.800;9.988;2022-11-15T00:55:13;38.85;;;17.35;;
75993;SDS011;64680;53.800;9.988;2022-11-15T00:57:40;36.90;;;18.88;;
75993;SDS011;64680;53.800;9.988;2022-11-15T01:00:06;31.05;;;16.17;;
75993;SDS011;64680;53.800;9.988;2022-11-15T01:02:32;41.30;;;19.52;;
75993;SDS011;64680;53.800;9.988;2022-11-15T01:04:58;36.58;;;17.60;;
75993;SDS011;64680;53.800;9.988;2022-11-15T01:07:24;41.38;;;20.63;;
75993;SDS011;64680;53.800;9.988;2022-11-15T01:09:50;31.80;;;16.75;;
75993;SDS011;64680;53.800;9.988;2022-11-15T01:12:15;34.22;;;15.73;;
75993;SDS011;64680;53.800;9.988;2022-11-15T01:14:41;36.65;;;18.60;;
75993;SDS011;64680;53.800;9.988;2022-11-15T01:17:06;33.60;;;15.38;;
75993;SDS011;64680;53.800;9.988;2022-11-15T01:19:32;30.40;;;14.40;;
75993;SDS011;64680;53.800;9.988;2022-11-15T01:21:57;33.15;;;17.92;;
75993;SDS011;64680;53.800;9.988;2022-11-15T01:24:23;33.13;;;17.25;;
75993;SDS011;64680;53.800;9.988;2022-11-15T01:26:48;36.03;;;17.65;;
75993;SDS011;64680;53.800;9.988;2022-11-15T01:29:14;35.97;;;17.33;;
75993;SDS011;64680;53.800;9.988;2022-11-15T01:31:40;33.72;;;15.43;;
75993;SDS011;64680;53.800;9.988;2022-11-15T01:34:05;37.35;;;17.83;;
75993;SDS011;64680;53.800;9.988;2022-11-15T01:36:31;35.45;;;17.52;;
75993;SDS011;64680;53.800;9.988;2022-11-15T01:38:57;35.75;;;15.77;;
75993;SDS011;64680;53.800;9.988;2022-11-15T01:41:27;34.88;;;18.55;;
75993;SDS011;64680;53.800;9.988;2022-11-15T01:44:28;47.22;;;19.83;;
75993;SDS011;64680;53.800;9.988;2022-11-15T01:47:02;36.17;;;17.13;;
75993;SDS011;64680;53.800;9.988;2022-11-15T01:49:31;32.83;;;15.68;;
75993;SDS011;64680;53.800;9.988;2022-11-15T01:54:25;34.95;;;17.10;;
75993;SDS011;64680;53.800;9.988;2022-11-15T01:57:09;30.80;;;14.52;;
75993;SDS011;64680;53.800;9.988;2022-11-15T01:59:37;36.00;;;16.88;;
75993;SDS011;64680;53.800;9.988;2022-11-15T02:02:07;37.95;;;18.23;;
75993;SDS011;64680;53.800;9.988;2022-11-15T02:04:34;38.10;;;18.40;;
75993;SDS011;64680;53.800;9.988;2022-11-15T02:07:04;38.20;;;17.70;;
75993;SDS011;64680;53.800;9.988;2022-11-15T02:11:58;38.40;;;18.08;;
75993;SDS011;64680;53.800;9.988;2022-11-15T02:14:25;34.35;;;15.57;;
75993;SDS011;64680;53.800;9.988;2022-11-15T02:20:13;33.80;;;16.30;;
75993;SDS011;64680;53.800;9.988;2022-11-15T02:31:28;30.95;;;15.80;;
75993;SDS011;64680;53.800;9.988;2022-11-15T02:36:49;28.90;;;14.35;;
75993;SDS011;64680;53.800;9.988;2022-11-15T02:39:41;29.17;;;14.50;;
75993;SDS011;64680;53.800;9.988;2022-11-15T02:42:21;29.58;;;15.05;;
75993;SDS011;64680;53.800;9.988;2022-11-15T02:45:10;33.33;;;15.88;;
75993;SDS011;64680;53.800;9.988;2022-11-15T02:47:43;29.52;;;14.25;;
75993;SDS011;64680;53.800;9.988;2022-11-15T02:50:10;31.65;;;15.68;;
75993;SDS011;64680;53.800;9.988;2022-11-15T02:52:39;29.75;;;14.88;;
75993;SDS011;64680;53.800;9.988;2022-11-15T02:55:04;31.77;;;16.30;;
75993;SDS011;64680;53.800;9.988;2022-11-15T03:00:03;33.83;;;16.33;;
75993;SDS011;64680;53.800;9.988;2022-11-15T03:06:03;35.70;;;16.33;;
75993;SDS011;64680;53.800;9.988;2022-11-15T03:11:11;33.80;;;14.82;;
75993;SDS011;64680;53.800;9.988;2022-11-15T03:16:44;33.00;;;14.90;;
75993;SDS011;64680;53.800;9.988;2022-11-15T03:19:38;26.88;;;13.75;;
75993;SDS011;64680;53.800;9.988;2022-11-15T03:22:10;33.33;;;16.00;;
75993;SDS011;64680;53.800;9.988;2022-11-15T03:24:40;32.63;;;14.45;;
75993;SDS011;64680;53.800;9.988;2022-11-15T03:27:08;45.83;;;21.30;;
75993;SDS011;64680;53.800;9.988;2022-11-15T03:29:39;30.55;;;13.82;;
75993;SDS011;64680;53.800;9.988;2022-11-15T03:32:09;32.08;;;15.68;;
75993;SDS011;64680;53.800;9.988;2022-11-15T03:34:41;34.55;;;16.58;;
75993;SDS011;64680;53.800;9.988;2022-11-15T03:37:12;35.47;;;15.80;;
75993;SDS011;64680;53.800;9.988;2022-11-15T03:39:40;28.58;;;13.57;;
75993;SDS011;64680;53.800;9.988;2022-11-15T03:44:58;31.67;;;15.13;;
75993;SDS011;64680;53.800;9.988;2022-11-15T03:47:51;33.65;;;14.88;;
75993;SDS011;64680;53.800;9.988;2022-11-15T03:50:23;32.53;;;13.82;;
75993;SDS011;64680;53.800;9.988;2022-11-15T03:52:50;34.75;;;15.25;;
75993;SDS011;64680;53.800;9.988;2022-11-15T03:55:17;27.55;;;14.13;;
75993;SDS011;64680;53.800;9.988;2022-11-15T03:57:45;31.02;;;15.18;;
75993;SDS011;64680;53.800;9.988;2022-11-15T04:00:13;26.70;;;13.15;;
75993;SDS011;64680;53.800;9.988;2022-11-15T04:02:39;29.38;;;15.45;;
75993;SDS011;64680;53.800;9.988;2022-11-15T04:05:04;30.25;;;13.90;;
75993;SDS011;64680;53.800;9.988;2022-11-15T04:07:30;28.92;;;15.00;;
75993;SDS011;64680;53.800;9.988;2022-11-15T04:09:56;32.75;;;15.70;;
75993;SDS011;64680;53.800;9.988;2022-11-15T04:12:31;30.52;;;14.77;;
75993;SDS011;64680;53.800;9.988;2022-11-15T04:14:59;24.20;;;12.55;;
75993;SDS011;64680;53.800;9.988;2022-11-15T04:17:33;30.00;;;15.48;;
75993;SDS011;64680;53.800;9.988;2022-11-15T04:20:04;46.85;;;21.25;;
75993;SDS011;64680;53.800;9.988;2022-11-15T04:22:51;28.75;;;14.80;;
75993;SDS011;64680;53.800;9.988;2022-11-15T04:25:36;26.02;;;12.73;;
75993;SDS011;64680;53.800;9.988;2022-11-15T04:28:02;27.13;;;13.43;;
75993;SDS011;64680;53.800;9.988;2022-11-15T04:30:27;27.23;;;12.18;;
75993;SDS011;64680;53.800;9.988;2022-11-15T04:32:53;27.63;;;12.95;;
75993;SDS011;64680;53.800;9.988;2022-11-15T04:35:18;30.50;;;15.23;;
75993;SDS011;64680;53.800;9.988;2022-11-15T04:37:44;24.48;;;12.20;;
75993;SDS011;64680;53.800;9.988;2022-11-15T04:40:10;26.15;;;13.65;;
75993;SDS011;64680;53.800;9.988;2022-11-15T04:42:36;23.40;;;11.73;;
75993;SDS011;64680;53.800;9.988;2022-11-15T04:45:01;28.08;;;13.60;;
75993;SDS011;64680;53.800;9.988;2022-11-15T04:47:27;29.98;;;14.40;;
75993;SDS011;64680;53.800;9.988;2022-11-15T04:49:54;31.95;;;15.27;;
75993;SDS011;64680;53.800;9.988;2022-11-15T04:52:20;29.55;;;14.57;;
75993;SDS011;64680;53.800;9.988;2022-11-15T04:54:45;26.50;;;13.02;;
75993;SDS011;64680;53.800;9.988;2022-11-15T04:57:11;30.85;;;15.18;;
75993;SDS011;64680;53.800;9.988;2022-11-15T04:59:36;26.15;;;13.50;;
75993;SDS011;64680;53.800;9.988;2022-11-15T05:02:02;30.27;;;15.57;;
75993;SDS011;64680;53.800;9.988;2022-11-15T05:04:27;34.30;;;16.90;;
75993;SDS011;64680;53.800;9.988;2022-11-15T05:06:53;35.63;;;17.50;;
75993;SDS011;64680;53.800;9.988;2022-11-15T05:09:19;28.83;;;14.85;;
75993;SDS011;64680;53.800;9.988;2022-11-15T05:11:45;29.17;;;15.02;;
75993;SDS011;64680;53.800;9.988;2022-11-15T05:14:11;25.30;;;13.48;;
75993;SDS011;64680;53.800;9.988;2022-11-15T05:16:38;27.95;;;13.93;;
75993;SDS011;64680;53.800;9.988;2022-11-15T05:19:07;27.98;;;14.60;;
75993;SDS011;64680;53.800;9.988;2022-11-15T05:21:37;25.75;;;15.18;;
75993;SDS011;64680;53.800;9.988;2022-11-15T05:24:03;31.65;;;16.27;;
75993;SDS011;64680;53.800;9.988;2022-11-15T05:26:29;32.75;;;16.63;;
75993;SDS011;64680;53.800;9.988;2022-11-15T05:28:58;28.10;;;15.70;;
75993;SDS011;64680;53.800;9.988;2022-11-15T05:31:27;26.70;;;13.75;;
75993;SDS011;64680;53.800;9.988;2022-11-15T05:33:53;27.77;;;12.70;;
75993;SDS011;64680;53.800;9.988;2022-11-15T05:39:04;27.63;;;14.70;;
75993;SDS011;64680;53.800;9.988;2022-11-15T05:41:39;28.15;;;13.68;;
75993;SDS011;64680;53.800;9.988;2022-11-15T05:44:07;26.55;;;15.18;;
75993;SDS011;64680;53.800;9.988;2022-11-15T05:49:00;29.52;;;15.05;;
75993;SDS011;64680;53.800;9.988;2022-11-15T05:51:27;31.65;;;15.35;;
75993;SDS011;64680;53.800;9.988;2022-11-15T05:53:55;28.35;;;15.05;;
75993;SDS011;64680;53.800;9.988;2022-11-15T05:58:49;28.02;;;14.00;;
75993;SDS011;64680;53.800;9.988;2022-11-15T06:01:15;26.17;;;12.60;;
75993;SDS011;64680;53.800;9.988;2022-11-15T06:03:40;27.38;;;13.55;;
75993;SDS011;64680;53.800;9.988;2022-11-15T06:06:06;27.65;;;12.98;;
75993;SDS011;64680;53.800;9.988;2022-11-15T06:08:31;30.35;;;15.45;;
75993;SDS011;64680;53.800;9.988;2022-11-15T06:11:02;24.45;;;12.55;;
75993;SDS011;64680;53.800;9.988;2022-11-15T06:13:31;25.52;;;13.00;;
75993;SDS011;64680;53.800;9.988;2022-11-15T06:15:57;22.05;;;11.65;;
75993;SDS011;64680;53.800;9.988;2022-11-15T06:18:23;24.75;;;12.13;;
75993;SDS011;64680;53.800;9.988;2022-11-15T06:20:49;23.85;;;14.25;;
75993;SDS011;64680;53.800;9.988;2022-11-15T06:23:15;27.02;;;13.57;;
75993;SDS011;64680;53.800;9.988;2022-11-15T06:25:40;27.67;;;14.50;;
75993;SDS011;64680;53.800;9.988;2022-11-15T06:28:06;27.98;;;15.32;;
75993;SDS011;64680;53.800;9.988;2022-11-15T06:30:32;27.45;;;14.98;;
75993;SDS011;64680;53.800;9.988;2022-11-15T06:33:04;24.42;;;12.43;;
75993;SDS011;64680;53.800;9.988;2022-11-15T06:35:30;25.42;;;13.68;;
75993;SDS011;64680;53.800;9.988;2022-11-15T06:40:28;26.60;;;14.65;;
75993;SDS011;64680;53.800;9.988;2022-11-15T06:43:00;23.50;;;13.52;;
75993;SDS011;64680;53.800;9.988;2022-11-15T06:45:26;28.75;;;14.75;;
75993;SDS011;64680;53.800;9.988;2022-11-15T06:47:52;27.83;;;14.65;;
75993;SDS011;64680;53.800;9.988;2022-11-15T06:50:17;29.23;;;14.50;;
75993;SDS011;64680;53.800;9.988;2022-11-15T06:52:43;27.52;;;14.43;;
75993;SDS011;64680;53.800;9.988;2022-11-15T06:55:09;24.25;;;13.00;;
75993;SDS011;64680;53.800;9.988;2022-11-15T06:57:35;30.10;;;16.05;;
75993;SDS011;64680;53.800;9.988;2022-11-15T07:00:02;26.75;;;13.85;;
75993;SDS011;64680;53.800;9.988;2022-11-15T07:02:29;24.02;;;13.07;;
75993;SDS011;64680;53.800;9.988;2022-11-15T07:04:54;26.75;;;14.45;;
75993;SDS011;64680;53.800;9.988;2022-11-15T07:07:20;25.85;;;13.65;;
75993;SDS011;64680;53.800;9.988;2022-11-15T07:09:46;28.75;;;15.15;;
75993;SDS011;64680;53.800;9.988;2022-11-15T07:12:11;26.17;;;13.50;;
75993;SDS011;64680;53.800;9.988;2022-11-15T07:14:37;23.42;;;12.73;;
75993;SDS011;64680;53.800;9.988;2022-11-15T07:17:03;24.10;;;13.82;;
75993;SDS011;64680;53.800;9.988;2022-11-15T07:19:30;26.42;;;14.98;;
75993;SDS011;64680;53.800;9.988;2022-11-15T07:21:56;26.08;;;15.15;;
75993;SDS011;64680;53.800;9.988;2022-11-15T07:24:21;24.10;;;13.73;;
75993;SDS011;64680;53.800;9.988;2022-11-15T07:26:47;26.05;;;14.70;;
75993;SDS011;64680;53.800;9.988;2022-11-15T07:29:12;27.63;;;14.43;;
75993;SDS011;64680;53.800;9.988;2022-11-15T07:31:38;27.92;;;15.93;;
75993;SDS011;64680;53.800;9.988;2022-11-15T07:34:04;29.63;;;14.10;;
75993;SDS011;64680;53.800;9.988;2022-11-15T07:36:29;25.58;;;13.40;;
75993;SDS011;64680;53.800;9.988;2022-11-15T07:38:55;27.35;;;13.73;;
75993;SDS011;64680;53.800;9.988;2022-11-15T07:41:20;24.42;;;13.40;;
75993;SDS011;64680;53.800;9.988;2022-11-15T07:43:46;26.13;;;14.68;;
75993;SDS011;64680;53.800;9.988;2022-11-15T07:46:12;24.10;;;12.02;;
75993;SDS011;64680;53.800;9.988;2022-11-15T07:48:38;32.42;;;15.63;;
75993;SDS011;64680;53.800;9.988;2022-11-15T07:51:05;27.42;;;14.32;;
75993;SDS011;64680;53.800;9.988;2022-11-15T07:53:31;29.48;;;15.93;;
75993;SDS011;64680;53.800;9.988;2022-11-15T07:55:56;24.67;;;14.32;;
75993;SDS011;64680;53.800;9.988;2022-11-15T07:58:22;27.38;;;14.20;;
75993;SDS011;64680;53.800;9.988;2022-11-15T08:00:48;27.10;;;15.20;;
75993;SDS011;64680;53.800;9.988;2022-11-15T08:03:14;24.13;;;13.25;;
75993;SDS011;64680;53.800;9.988;2022-11-15T08:05:41;21.65;;;11.15;;
75993;SDS011;64680;53.800;9.988;2022-11-15T08:08:08;31.52;;;17.10;;
75993;SDS011;64680;53.800;9.988;2022-11-15T08:10:35;25.73;;;14.45;;
75993;SDS011;64680;53.800;9.988;2022-11-15T08:13:04;22.80;;;13.20;;
75993;SDS011;64680;53.800;9.988;2022-11-15T08:15:31;22.92;;;12.15;;
75993;SDS011;64680;53.800;9.988;2022-11-15T08:17:59;29.45;;;14.80;;
75993;SDS011;64680;53.800;9.988;2022-11-15T08:20:27;24.70;;;14.85;;
75993;SDS011;64680;53.800;9.988;2022-11-15T08:22:55;24.85;;;12.60;;
75993;SDS011;64680;53.800;9.988;2022-11-15T08:25:21;22.05;;;11.43;;
75993;SDS011;64680;53.800;9.988;2022-11-15T08:27:47;22.00;;;12.75;;
75993;SDS011;64680;53.800;9.988;2022-11-15T08:30:16;21.95;;;11.95;;
75993;SDS011;64680;53.800;9.988;2022-11-15T08:32:42;23.42;;;13.73;;
75993;SDS011;64680;53.800;9.988;2022-11-15T08:35:08;23.13;;;13.68;;
75993;SDS011;64680;53.800;9.988;2022-11-15T08:37:33;22.77;;;13.23;;
75993;SDS011;64680;53.800;9.988;2022-11-15T08:40:00;26.45;;;14.25;;
75993;SDS011;64680;53.800;9.988;2022-11-15T08:42:26;20.85;;;11.73;;
75993;SDS011;64680;53.800;9.988;2022-11-15T08:44:51;21.70;;;12.73;;
75993;SDS011;64680;53.800;9.988;2022-11-15T08:47:17;25.25;;;13.75;;
75993;SDS011;64680;53.800;9.988;2022-11-15T08:49:42;24.40;;;13.05;;
75993;SDS011;64680;53.800;9.988;2022-11-15T08:52:08;21.33;;;12.70;;
75993;SDS011;64680;53.800;9.988;2022-11-15T08:54:34;23.10;;;12.73;;
75993;SDS011;64680;53.800;9.988;2022-11-15T08:56:59;23.27;;;12.95;;
75993;SDS011;64680;53.800;9.988;2022-11-15T08:59:25;20.35;;;11.35;;
75993;SDS011;64680;53.800;9.988;2022-11-15T09:01:51;22.40;;;12.20;;
75993;SDS011;64680;53.800;9.988;2022-11-15T09:04:16;18.98;;;11.63;;
75993;SDS011;64680;53.800;9.988;2022-11-15T09:06:42;17.73;;;10.57;;
75993;SDS011;64680;53.800;9.988;2022-11-15T09:09:08;20.10;;;11.45;;
75993;SDS011;64680;53.800;9.988;2022-11-15T09:11:33;23.55;;;13.40;;
75993;SDS011;64680;53.800;9.988;2022-11-15T09:13:59;20.50;;;11.93;;
75993;SDS011;64680;53.800;9.988;2022-11-15T09:16:25;19.58;;;12.20;;
75993;SDS011;64680;53.800;9.988;2022-11-15T09:18:50;18.65;;;10.82;;
75993;SDS011;64680;53.800;9.988;2022-11-15T09:21:16;20.23;;;11.70;;
75993;SDS011;64680;53.800;9.988;2022-11-15T09:23:41;18.00;;;10.82;;
75993;SDS011;64680;53.800;9.988;2022-11-15T09:26:07;20.23;;;11.88;;
75993;SDS011;64680;53.800;9.988;2022-11-15T09:28:33;19.25;;;11.35;;
75993;SDS011;64680;53.800;9.988;2022-11-15T09:30:59;19.27;;;11.43;;
75993;SDS011;64680;53.800;9.988;2022-11-15T09:33:26;19.77;;;10.60;;
75993;SDS011;64680;53.800;9.988;2022-11-15T09:35:53;22.88;;;12.10;;
75993;SDS011;64680;53.800;9.988;2022-11-15T09:38:19;17.02;;;10.45;;
75993;SDS011;64680;53.800;9.988;2022-11-15T09:40:45;17.05;;;9.95;;
75993;SDS011;64680;53.800;9.988;2022-11-15T09:48:30;18.17;;;10.30;;
75993;SDS011;64680;53.800;9.988;2022-11-15T09:51:00;17.15;;;10.27;;
75993;SDS011;64680;53.800;9.988;2022-11-15T09:53:29;19.20;;;9.90;;
75993;SDS011;64680;53.800;9.988;2022-11-15T09:56:03;20.02;;;10.63;;
75993;SDS011;64680;53.800;9.988;2022-11-15T09:58:47;21.67;;;12.13;;
75993;SDS011;64680;53.800;9.988;2022-11-15T10:04:19;18.83;;;10.27;;
75993;SDS011;64680;53.800;9.988;2022-11-15T10:06:52;18.02;;;11.02;;
75993;SDS011;64680;53.800;9.988;2022-11-15T10:09:28;23.35;;;13.15;;
75993;SDS011;64680;53.800;9.988;2022-11-15T10:11:59;16.88;;;10.02;;
75993;SDS011;64680;53.800;9.988;2022-11-15T10:14:25;18.30;;;10.65;;
75993;SDS011;64680;53.800;9.988;2022-11-15T10:22:38;21.75;;;11.73;;
75993;SDS011;64680;53.800;9.988;2022-11-15T10:27:38;16.45;;;10.52;;
75993;SDS011;64680;53.800;9.988;2022-11-15T10:30:15;18.25;;;10.95;;
75993;SDS011;64680;53.800;9.988;2022-11-15T10:32:43;18.65;;;10.38;;
75993;SDS011;64680;53.800;9.988;2022-11-15T10:35:21;18.13;;;10.88;;
75993;SDS011;64680;53.800;9.988;2022-11-15T10:37:49;15.43;;;10.10;;
75993;SDS011;64680;53.800;9.988;2022-11-15T10:40:21;14.90;;;9.35;;
75993;SDS011;64680;53.800;9.988;2022-11-15T10:42:49;15.32;;;10.98;;
75993;SDS011;64680;53.800;9.988;2022-11-15T10:45:35;13.77;;;8.98;;
75993;SDS011;64680;53.800;9.988;2022-11-15T10:50:39;15.52;;;8.95;;
75993;SDS011;64680;53.800;9.988;2022-11-15T10:55:52;17.58;;;11.02;;
75993;SDS011;64680;53.800;9.988;2022-11-15T11:03:39;15.18;;;10.23;;
75993;SDS011;64680;53.800;9.988;2022-11-15T11:06:10;14.60;;;8.70;;
75993;SDS011;64680;53.800;9.988;2022-11-15T11:08:38;16.45;;;10.40;;
75993;SDS011;64680;53.800;9.988;2022-11-15T11:11:04;16.15;;;10.20;;
75993;SDS011;64680;53.800;9.988;2022-11-15T11:18:33;15.13;;;8.00;;
75993;SDS011;64680;53.800;9.988;2022-11-15T11:21:24;18.13;;;11.90;;
75993;SDS011;64680;53.800;9.988;2022-11-15T11:24:30;13.68;;;8.32;;
75993;SDS011;64680;53.800;9.988;2022-11-15T11:27:32;16.98;;;9.68;;
75993;SDS011;64680;53.800;9.988;2022-11-15T11:33:09;16.05;;;10.13;;
75993;SDS011;64680;53.800;9.988;2022-11-15T11:35:52;18.63;;;10.10;;
75993;SDS011;64680;53.800;9.988;2022-11-15T11:38:32;14.55;;;9.98;;
75993;SDS011;64680;53.800;9.988;2022-11-15T11:44:22;14.27;;;8.90;;
75993;SDS011;64680;53.800;9.988;2022-11-15T11:46:56;14.77;;;9.88;;
75993;SDS011;64680;53.800;9.988;2022-11-15T11:49:34;15.02;;;9.90;;
75993;SDS011;64680;53.800;9.988;2022-11-15T11:52:24;16.42;;;8.13;;
75993;SDS011;64680;53.800;9.988;2022-11-15T12:00:19;15.40;;;9.43;;
75993;SDS011;64680;53.800;9.988;2022-11-15T12:02:49;14.35;;;8.98;;
75993;SDS011;64680;53.800;9.988;2022-11-15T12:11:23;13.77;;;8.77;;
75993;SDS011;64680;53.800;9.988;2022-11-15T12:14:00;14.18;;;8.88;;
75993;SDS011;64680;53.800;9.988;2022-11-15T12:16:29;15.70;;;9.70;;
75993;SDS011;64680;53.800;9.988;2022-11-15T12:18:58;13.20;;;8.55;;
75993;SDS011;64680;53.800;9.988;2022-11-15T12:26:52;12.82;;;9.35;;
75993;SDS011;64680;53.800;9.988;2022-11-15T12:29:41;16.15;;;9.15;;
75993;SDS011;64680;53.800;9.988;2022-11-15T12:32:30;16.35;;;9.35;;
75993;SDS011;64680;53.800;9.988;2022-11-15T12:34:59;12.57;;;8.85;;
75993;SDS011;64680;53.800;9.988;2022-11-15T12:45:42;14.50;;;9.38;;
75993;SDS011;64680;53.800;9.988;2022-11-15T12:56:04;13.50;;;9.20;;
75993;SDS011;64680;53.800;9.988;2022-11-15T13:07:05;14.77;;;9.18;;
75993;SDS011;64680;53.800;9.988;2022-11-15T13:12:07;14.73;;;8.82;;
75993;SDS011;64680;53.800;9.988;2022-11-15T13:17:27;14.95;;;9.85;;
75993;SDS011;64680;53.800;9.988;2022-11-15T13:22:42;12.27;;;8.65;;
75993;SDS011;64680;53.800;9.988;2022-11-15T13:25:23;11.77;;;8.25;;
75993;SDS011;64680;53.800;9.988;2022-11-15T13:33:36;11.68;;;7.95;;
75993;SDS011;64680;53.800;9.988;2022-11-15T13:38:41;11.30;;;6.85;;
75993;SDS011;64680;53.800;9.988;2022-11-15T13:41:20;12.43;;;7.03;;
75993;SDS011;64680;53.800;9.988;2022-11-15T13:43:49;11.60;;;8.55;;
75993;SDS011;64680;53.800;9.988;2022-11-15T13:46:28;12.38;;;8.65;;
75993;SDS011;64680;53.800;9.988;2022-11-15T13:49:04;11.75;;;7.90;;
75993;SDS011;64680;53.800;9.988;2022-11-15T13:56:46;13.05;;;8.57;;
75993;SDS011;64680;53.800;9.988;2022-11-15T13:59:28;11.88;;;8.45;;
75993;SDS011;64680;53.800;9.988;2022-11-15T14:02:12;10.07;;;8.07;;
75993;SDS011;64680;53.800;9.988;2022-11-15T14:05:15;10.73;;;7.30;;
75993;SDS011;64680;53.800;9.988;2022-11-15T14:10:38;12.38;;;7.35;;
75993;SDS011;64680;53.800;9.988;2022-11-15T14:13:04;9.80;;;7.07;;
75993;SDS011;64680;53.800;9.988;2022-11-15T14:15:51;15.05;;;9.18;;
75993;SDS011;64680;53.800;9.988;2022-11-15T14:21:07;9.68;;;6.53;;
75993;SDS011;64680;53.800;9.988;2022-11-15T14:23:33;11.73;;;7.35;;
75993;SDS011;64680;53.800;9.988;2022-11-15T14:25:59;9.30;;;6.28;;
75993;SDS011;64680;53.800;9.988;2022-11-15T14:30:51;11.25;;;7.28;;
75993;SDS011;64680;53.800;9.988;2022-11-15T14:33:19;11.77;;;7.38;;
75993;SDS011;64680;53.800;9.988;2022-11-15T14:35:54;11.02;;;6.88;;
75993;SDS011;64680;53.800;9.988;2022-11-15T14:40:50;12.65;;;8.07;;
75993;SDS011;64680;53.800;9.988;2022-11-15T14:43:18;11.02;;;7.40;;
75993;SDS011;64680;53.800;9.988;2022-11-15T14:45:44;11.30;;;7.95;;
75993;SDS011;64680;53.800;9.988;2022-11-15T14:48:10;9.85;;;6.50;;
75993;SDS011;64680;53.800;9.988;2022-11-15T14:50:36;9.15;;;6.28;;
75993;SDS011;64680;53.800;9.988;2022-11-15T14:53:03;10.95;;;7.65;;
75993;SDS011;64680;53.800;9.988;2022-11-15T14:55:31;9.95;;;6.28;;
75993;SDS011;64680;53.800;9.988;2022-11-15T14:58:04;10.57;;;6.63;;
75993;SDS011;64680;53.800;9.988;2022-11-15T15:00:36;13.68;;;7.90;;
75993;SDS011;64680;53.800;9.988;2022-11-15T15:03:03;11.18;;;7.10;;
75993;SDS011;64680;53.800;9.988;2022-11-15T15:05:31;11.93;;;8.10;;
75993;SDS011;64680;53.800;9.988;2022-11-15T15:07:58;9.93;;;6.43;;
75993;SDS011;64680;53.800;9.988;2022-11-15T15:10:24;12.10;;;7.45;;
75993;SDS011;64680;53.800;9.988;2022-11-15T15:12:52;11.80;;;7.30;;
75993;SDS011;64680;53.800;9.988;2022-11-15T15:15:20;10.23;;;7.38;;
75993;SDS011;64680;53.800;9.988;2022-11-15T15:17:49;11.48;;;7.35;;
75993;SDS011;64680;53.800;9.988;2022-11-15T15:20:14;12.10;;;6.93;;
75993;SDS011;64680;53.800;9.988;2022-11-15T15:22:40;10.13;;;7.18;;
75993;SDS011;64680;53.800;9.988;2022-11-15T15:25:48;11.80;;;6.95;;
75993;SDS011;64680;53.800;9.988;2022-11-15T15:27:59;11.50;;;7.68;;
75993;SDS011;64680;53.800;9.988;2022-11-15T15:30:26;9.82;;;6.90;;
75993;SDS011;64680;53.800;9.988;2022-11-15T15:32:54;10.75;;;7.03;;
75993;SDS011;64680;53.800;9.988;2022-11-15T15:35:19;9.77;;;6.60;;
75993;SDS011;64680;53.800;9.988;2022-11-15T15:37:46;10.02;;;5.32;;
75993;SDS011;64680;53.800;9.988;2022-11-15T15:40:22;12.20;;;8.02;;
75993;SDS011;64680;53.800;9.988;2022-11-15T15:42:49;11.18;;;7.18;;
75993;SDS011;64680;53.800;9.988;2022-11-15T15:45:15;10.88;;;7.43;;
75993;SDS011;64680;53.800;9.988;2022-11-15T15:47:43;12.85;;;8.32;;
75993;SDS011;64680;53.800;9.988;2022-11-15T15:52:59;13.00;;;8.38;;
75993;SDS011;64680;53.800;9.988;2022-11-15T15:55:27;9.07;;;6.00;;
75993;SDS011;64680;53.800;9.988;2022-11-15T15:57:53;14.40;;;8.50;;
75993;SDS011;64680;53.800;9.988;2022-11-15T16:00:19;10.70;;;6.60;;
75993;SDS011;64680;53.800;9.988;2022-11-15T16:02:46;12.25;;;7.20;;
75993;SDS011;64680;53.800;9.988;2022-11-15T16:05:11;10.98;;;7.32;;
75993;SDS011;64680;53.800;9.988;2022-11-15T16:07:37;11.25;;;7.65;;
75993;SDS011;64680;53.800;9.988;2022-11-15T16:10:27;11.82;;;6.53;;
75993;SDS011;64680;53.800;9.988;2022-11-15T16:12:52;11.18;;;6.18;;
75993;SDS011;64680;53.800;9.988;2022-11-15T16:15:19;12.27;;;7.07;;
75993;SDS011;64680;53.800;9.988;2022-11-15T16:17:50;9.38;;;6.97;;
75993;SDS011;64680;53.800;9.988;2022-11-15T16:20:29;12.23;;;8.25;;
75993;SDS011;64680;53.800;9.988;2022-11-15T16:23:04;12.23;;;7.88;;
75993;SDS011;64680;53.800;9.988;2022-11-15T16:25:37;11.88;;;8.13;;
75993;SDS011;64680;53.800;9.988;2022-11-15T16:28:20;13.60;;;7.65;;
75993;SDS011;64680;53.800;9.988;2022-11-15T16:30:47;12.80;;;7.60;;
75993;SDS011;64680;53.800;9.988;2022-11-15T16:33:14;10.75;;;7.90;;
75993;SDS011;64680;53.800;9.988;2022-11-15T16:35:39;11.60;;;7.35;;
75993;SDS011;64680;53.800;9.988;2022-11-15T16:38:05;14.00;;;7.43;;
75993;SDS011;64680;53.800;9.988;2022-11-15T16:40:33;12.93;;;7.82;;
75993;SDS011;64680;53.800;9.988;2022-11-15T16:43:00;11.98;;;7.93;;
75993;SDS011;64680;53.800;9.988;2022-11-15T16:45:27;12.40;;;8.52;;
75993;SDS011;64680;53.800;9.988;2022-11-15T16:47:56;11.85;;;8.00;;
75993;SDS011;64680;53.800;9.988;2022-11-15T16:50:23;10.70;;;7.07;;
75993;SDS011;64680;53.800;9.988;2022-11-15T16:52:54;13.45;;;8.27;;
75993;SDS011;64680;53.800;9.988;2022-11-15T16:55:23;10.50;;;6.90;;
75993;SDS011;64680;53.800;9.988;2022-11-15T16:57:50;13.00;;;7.75;;
75993;SDS011;64680;53.800;9.988;2022-11-15T17:00:17;13.10;;;7.72;;
75993;SDS011;64680;53.800;9.988;2022-11-15T17:02:44;15.98;;;9.10;;
75993;SDS011;64680;53.800;9.988;2022-11-15T17:05:11;13.38;;;8.70;;
75993;SDS011;64680;53.800;9.988;2022-11-15T17:07:38;15.10;;;9.25;;
75993;SDS011;64680;53.800;9.988;2022-11-15T17:10:04;16.42;;;9.85;;
75993;SDS011;64680;53.800;9.988;2022-11-15T17:12:31;13.98;;;8.85;;
75993;SDS011;64680;53.800;9.988;2022-11-15T17:14:58;11.57;;;7.65;;
75993;SDS011;64680;53.800;9.988;2022-11-15T17:17:23;13.90;;;8.65;;